sensor_id;sensor_type;location;lat;lon;timestamp;P1;durP1;ratioP1;P2;durP2;ratioP2
61741;SDS011;47650;49.848;9.620;2023-05-20T00:01:45;4.53;;;3.70;;
61741;SDS011;47650;49.848;9.620;2023-05-20T00:04:11;7.57;;;3.80;;
61741;SDS011;47650;49.848;9.620;2023-05-20T00:06:38;4.47;;;3.78;;
61741;SDS011;47650;49.848;9.620;2023-05-20T00:09:05;5.53;;;4.00;;
61741;SDS011;47650;49.848;9.620;2023-05-20T00:11:31;5.45;;;3.92;;
61741;SDS011;47650;49.848;9.620;2023-05-20T00:13:58;4.80;;;4.28;;
61741;SDS011;47650;49.848;9.620;2023-05-20T00:16:25;5.28;;;4.00;;
61741;SDS011;47650;49.848;9.620;2023-05-20T00:18:50;6.05;;;4.18;;
61741;SDS011;47650;49.848;9.620;2023-05-20T00:21:15;4.32;;;3.45;;
61741;SDS011;47650;49.848;9.620;2023-05-20T00:26:09;6.05;;;4.20;;
61741;SDS011;47650;49.848;9.620;2023-05-20T00:28:34;5.53;;;3.90;;
61741;SDS011;47650;49.848;9.620;2023-05-20T00:31:00;4.85;;;3.90;;
61741;SDS011;47650;49.848;9.620;2023-05-20T00:33:27;6.50;;;4.32;;
61741;SDS011;47650;49.848;9.620;2023-05-20T00:35:52;8.25;;;4.15;;
61741;SDS011;47650;49.848;9.620;2023-05-20T00:38:17;7.15;;;4.55;;
61741;SDS011;47650;49.848;9.620;2023-05-20T00:40:46;6.15;;;4.65;;
61741;SDS011;47650;49.848;9.620;2023-05-20T00:43:11;5.18;;;4.40;;
61741;SDS011;47650;49.848;9.620;2023-05-20T00:45:37;8.82;;;4.20;;
61741;SDS011;47650;49.848;9.620;2023-05-20T00:48:03;6.70;;;4.05;;
61741;SDS011;47650;49.848;9.620;2023-05-20T00:50:32;6.68;;;4.78;;
61741;SDS011;47650;49.848;9.620;2023-05-20T00:52:57;6.80;;;4.57;;
61741;SDS011;47650;49.848;9.620;2023-05-20T00:55:23;5.10;;;4.35;;
61741;SDS011;47650;49.848;9.620;2023-05-20T00:57:57;5.97;;;4.78;;
61741;SDS011;47650;49.848;9.620;2023-05-20T01:00:23;5.80;;;4.20;;
61741;SDS011;47650;49.848;9.620;2023-05-20T01:02:48;7.35;;;4.05;;
61741;SDS011;47650;49.848;9.620;2023-05-20T01:05:17;4.68;;;4.18;;
61741;SDS011;47650;49.848;9.620;2023-05-20T01:07:42;7.38;;;4.30;;
61741;SDS011;47650;49.848;9.620;2023-05-20T01:10:08;4.53;;;3.90;;
61741;SDS011;47650;49.848;9.620;2023-05-20T01:15:07;6.32;;;4.15;;
61741;SDS011;47650;49.848;9.620;2023-05-20T01:17:37;5.10;;;4.43;;
61741;SDS011;47650;49.848;9.620;2023-05-20T01:20:05;6.63;;;4.35;;
61741;SDS011;47650;49.848;9.620;2023-05-20T01:22:35;4.68;;;3.85;;
61741;SDS011;47650;49.848;9.620;2023-05-20T01:25:10;4.70;;;4.18;;
61741;SDS011;47650;49.848;9.620;2023-05-20T01:27:36;6.55;;;4.28;;
61741;SDS011;47650;49.848;9.620;2023-05-20T01:30:05;8.70;;;4.50;;
61741;SDS011;47650;49.848;9.620;2023-05-20T01:32:36;5.53;;;3.88;;
61741;SDS011;47650;49.848;9.620;2023-05-20T01:35:05;4.53;;;3.97;;
61741;SDS011;47650;49.848;9.620;2023-05-20T01:37:34;5.82;;;4.40;;
61741;SDS011;47650;49.848;9.620;2023-05-20T01:40:04;5.18;;;3.88;;
61741;SDS011;47650;49.848;9.620;2023-05-20T01:42:38;6.25;;;3.85;;
61741;SDS011;47650;49.848;9.620;2023-05-20T01:45:10;5.45;;;3.67;;
61741;SDS011;47650;49.848;9.620;2023-05-20T01:47:36;4.20;;;3.60;;
61741;SDS011;47650;49.848;9.620;2023-05-20T01:50:03;7.15;;;4.28;;
61741;SDS011;47650;49.848;9.620;2023-05-20T01:52:31;4.50;;;3.97;;
61741;SDS011;47650;49.848;9.620;2023-05-20T01:54:57;5.28;;;3.92;;
61741;SDS011;47650;49.848;9.620;2023-05-20T01:57:33;5.43;;;4.13;;
61741;SDS011;47650;49.848;9.620;2023-05-20T02:02:26;6.35;;;3.92;;
61741;SDS011;47650;49.848;9.620;2023-05-20T02:04:52;8.02;;;4.10;;
61741;SDS011;47650;49.848;9.620;2023-05-20T02:07:19;4.50;;;4.10;;
61741;SDS011;47650;49.848;9.620;2023-05-20T02:09:48;5.78;;;4.20;;
61741;SDS011;47650;49.848;9.620;2023-05-20T02:12:15;5.38;;;4.22;;
61741;SDS011;47650;49.848;9.620;2023-05-20T02:15:03;5.10;;;4.38;;
61741;SDS011;47650;49.848;9.620;2023-05-20T02:17:32;5.07;;;4.18;;
61741;SDS011;47650;49.848;9.620;2023-05-20T02:19:59;4.63;;;3.80;;
61741;SDS011;47650;49.848;9.620;2023-05-20T02:22:26;4.25;;;3.85;;
61741;SDS011;47650;49.848;9.620;2023-05-20T02:24:59;7.45;;;3.72;;
61741;SDS011;47650;49.848;9.620;2023-05-20T02:27:25;4.45;;;3.92;;
61741;SDS011;47650;49.848;9.620;2023-05-20T02:29:50;6.03;;;4.15;;
61741;SDS011;47650;49.848;9.620;2023-05-20T02:32:17;4.93;;;4.32;;
61741;SDS011;47650;49.848;9.620;2023-05-20T02:34:45;6.47;;;4.35;;
61741;SDS011;47650;49.848;9.620;2023-05-20T02:37:10;7.00;;;4.20;;
61741;SDS011;47650;49.848;9.620;2023-05-20T02:39:37;6.25;;;3.78;;
61741;SDS011;47650;49.848;9.620;2023-05-20T02:42:03;6.70;;;4.07;;
61741;SDS011;47650;49.848;9.620;2023-05-20T02:44:30;4.75;;;4.20;;
61741;SDS011;47650;49.848;9.620;2023-05-20T02:46:55;4.55;;;3.83;;
61741;SDS011;47650;49.848;9.620;2023-05-20T02:49:21;5.57;;;3.78;;
61741;SDS011;47650;49.848;9.620;2023-05-20T02:51:50;6.82;;;4.22;;
61741;SDS011;47650;49.848;9.620;2023-05-20T02:54:15;6.55;;;4.18;;
61741;SDS011;47650;49.848;9.620;2023-05-20T02:56:41;6.25;;;4.47;;
61741;SDS011;47650;49.848;9.620;2023-05-20T02:59:06;4.88;;;3.85;;
61741;SDS011;47650;49.848;9.620;2023-05-20T03:01:33;4.43;;;4.03;;
61741;SDS011;47650;49.848;9.620;2023-05-20T03:04:03;4.78;;;4.13;;
61741;SDS011;47650;49.848;9.620;2023-05-20T03:06:29;6.57;;;4.43;;
61741;SDS011;47650;49.848;9.620;2023-05-20T03:08:55;6.63;;;3.83;;
61741;SDS011;47650;49.848;9.620;2023-05-20T03:11:24;5.65;;;4.57;;
61741;SDS011;47650;49.848;9.620;2023-05-20T03:13:50;4.57;;;4.13;;
61741;SDS011;47650;49.848;9.620;2023-05-20T03:16:16;5.95;;;4.32;;
61741;SDS011;47650;49.848;9.620;2023-05-20T03:18:44;6.82;;;4.00;;
61741;SDS011;47650;49.848;9.620;2023-05-20T03:21:10;6.28;;;4.78;;
61741;SDS011;47650;49.848;9.620;2023-05-20T03:23:35;5.80;;;4.50;;
61741;SDS011;47650;49.848;9.620;2023-05-20T03:26:07;5.88;;;4.43;;
61741;SDS011;47650;49.848;9.620;2023-05-20T03:28:36;8.05;;;4.70;;
61741;SDS011;47650;49.848;9.620;2023-05-20T03:31:03;5.15;;;3.88;;
61741;SDS011;47650;49.848;9.620;2023-05-20T03:33:35;5.53;;;4.97;;
61741;SDS011;47650;49.848;9.620;2023-05-20T03:36:01;6.68;;;4.47;;
61741;SDS011;47650;49.848;9.620;2023-05-20T03:38:28;7.10;;;4.82;;
61741;SDS011;47650;49.848;9.620;2023-05-20T03:40:54;7.93;;;5.65;;
61741;SDS011;47650;49.848;9.620;2023-05-20T03:43:21;7.47;;;5.32;;
61741;SDS011;47650;49.848;9.620;2023-05-20T03:45:46;7.18;;;5.28;;
61741;SDS011;47650;49.848;9.620;2023-05-20T03:48:11;5.13;;;4.63;;
61741;SDS011;47650;49.848;9.620;2023-05-20T03:50:38;6.65;;;4.78;;
61741;SDS011;47650;49.848;9.620;2023-05-20T03:53:08;6.18;;;4.80;;
61741;SDS011;47650;49.848;9.620;2023-05-20T03:55:34;4.80;;;4.25;;
61741;SDS011;47650;49.848;9.620;2023-05-20T03:58:00;7.75;;;4.80;;
61741;SDS011;47650;49.848;9.620;2023-05-20T04:00:25;7.35;;;4.88;;
61741;SDS011;47650;49.848;9.620;2023-05-20T04:02:54;6.40;;;5.75;;
61741;SDS011;47650;49.848;9.620;2023-05-20T04:05:22;7.38;;;5.22;;
61741;SDS011;47650;49.848;9.620;2023-05-20T04:07:49;6.03;;;4.80;;
61741;SDS011;47650;49.848;9.620;2023-05-20T04:10:18;6.22;;;4.60;;
61741;SDS011;47650;49.848;9.620;2023-05-20T04:12:47;7.38;;;4.80;;
61741;SDS011;47650;49.848;9.620;2023-05-20T04:15:12;6.38;;;4.57;;
61741;SDS011;47650;49.848;9.620;2023-05-20T04:17:42;5.65;;;4.72;;
61741;SDS011;47650;49.848;9.620;2023-05-20T04:20:12;6.80;;;4.95;;
61741;SDS011;47650;49.848;9.620;2023-05-20T04:22:38;6.18;;;4.95;;
61741;SDS011;47650;49.848;9.620;2023-05-20T04:25:09;4.88;;;4.30;;
61741;SDS011;47650;49.848;9.620;2023-05-20T04:27:38;7.65;;;4.75;;
61741;SDS011;47650;49.848;9.620;2023-05-20T04:30:06;5.85;;;4.50;;
61741;SDS011;47650;49.848;9.620;2023-05-20T04:32:32;4.95;;;4.45;;
61741;SDS011;47650;49.848;9.620;2023-05-20T04:35:00;5.90;;;5.40;;
61741;SDS011;47650;49.848;9.620;2023-05-20T04:37:26;6.07;;;5.22;;
61741;SDS011;47650;49.848;9.620;2023-05-20T04:39:53;5.65;;;5.03;;
61741;SDS011;47650;49.848;9.620;2023-05-20T04:42:19;6.50;;;5.18;;
61741;SDS011;47650;49.848;9.620;2023-05-20T04:44:46;7.55;;;5.60;;
61741;SDS011;47650;49.848;9.620;2023-05-20T04:47:14;9.48;;;5.35;;
61741;SDS011;47650;49.848;9.620;2023-05-20T04:49:42;7.13;;;5.93;;
61741;SDS011;47650;49.848;9.620;2023-05-20T04:52:07;6.03;;;5.10;;
61741;SDS011;47650;49.848;9.620;2023-05-20T04:54:36;8.23;;;6.00;;
61741;SDS011;47650;49.848;9.620;2023-05-20T04:57:01;5.30;;;4.80;;
61741;SDS011;47650;49.848;9.620;2023-05-20T04:59:27;5.43;;;4.57;;
61741;SDS011;47650;49.848;9.620;2023-05-20T05:01:53;5.70;;;4.88;;
61741;SDS011;47650;49.848;9.620;2023-05-20T05:04:19;5.90;;;4.72;;
61741;SDS011;47650;49.848;9.620;2023-05-20T05:06:48;6.05;;;5.45;;
61741;SDS011;47650;49.848;9.620;2023-05-20T05:09:15;7.15;;;5.20;;
61741;SDS011;47650;49.848;9.620;2023-05-20T05:11:40;7.55;;;6.82;;
61741;SDS011;47650;49.848;9.620;2023-05-20T05:14:07;7.22;;;6.32;;
61741;SDS011;47650;49.848;9.620;2023-05-20T05:16:37;5.60;;;4.70;;
61741;SDS011;47650;49.848;9.620;2023-05-20T05:19:04;6.97;;;5.13;;
61741;SDS011;47650;49.848;9.620;2023-05-20T05:21:31;6.63;;;5.47;;
61741;SDS011;47650;49.848;9.620;2023-05-20T05:23:56;7.65;;;5.00;;
61741;SDS011;47650;49.848;9.620;2023-05-20T05:26:23;7.07;;;5.20;;
61741;SDS011;47650;49.848;9.620;2023-05-20T05:28:55;6.10;;;5.50;;
61741;SDS011;47650;49.848;9.620;2023-05-20T05:31:20;6.18;;;5.57;;
61741;SDS011;47650;49.848;9.620;2023-05-20T05:33:47;7.32;;;5.90;;
61741;SDS011;47650;49.848;9.620;2023-05-20T05:36:14;6.38;;;5.10;;
61741;SDS011;47650;49.848;9.620;2023-05-20T05:38:46;6.13;;;5.53;;
61741;SDS011;47650;49.848;9.620;2023-05-20T05:41:11;7.25;;;5.80;;
61741;SDS011;47650;49.848;9.620;2023-05-20T05:43:37;8.88;;;5.93;;
61741;SDS011;47650;49.848;9.620;2023-05-20T05:46:06;6.32;;;5.72;;
61741;SDS011;47650;49.848;9.620;2023-05-20T05:48:32;7.43;;;6.03;;
61741;SDS011;47650;49.848;9.620;2023-05-20T05:50:57;6.07;;;5.47;;
61741;SDS011;47650;49.848;9.620;2023-05-20T05:53:23;5.72;;;5.10;;
61741;SDS011;47650;49.848;9.620;2023-05-20T05:55:49;7.60;;;5.93;;
61741;SDS011;47650;49.848;9.620;2023-05-20T05:58:15;6.70;;;6.10;;
61741;SDS011;47650;49.848;9.620;2023-05-20T06:00:41;6.68;;;6.07;;
61741;SDS011;47650;49.848;9.620;2023-05-20T06:03:08;8.02;;;5.80;;
61741;SDS011;47650;49.848;9.620;2023-05-20T06:05:33;7.00;;;6.40;;
61741;SDS011;47650;49.848;9.620;2023-05-20T06:08:00;6.72;;;5.88;;
61741;SDS011;47650;49.848;9.620;2023-05-20T06:10:29;8.13;;;6.53;;
61741;SDS011;47650;49.848;9.620;2023-05-20T06:12:54;6.95;;;6.28;;
61741;SDS011;47650;49.848;9.620;2023-05-20T06:15:21;7.53;;;6.07;;
61741;SDS011;47650;49.848;9.620;2023-05-20T06:17:46;7.70;;;6.35;;
61741;SDS011;47650;49.848;9.620;2023-05-20T06:20:12;7.22;;;6.50;;
61741;SDS011;47650;49.848;9.620;2023-05-20T06:22:38;7.57;;;6.72;;
61741;SDS011;47650;49.848;9.620;2023-05-20T06:25:03;6.97;;;6.38;;
61741;SDS011;47650;49.848;9.620;2023-05-20T06:27:30;6.28;;;5.68;;
61741;SDS011;47650;49.848;9.620;2023-05-20T06:29:57;8.50;;;6.97;;
61741;SDS011;47650;49.848;9.620;2023-05-20T06:32:22;7.35;;;6.45;;
61741;SDS011;47650;49.848;9.620;2023-05-20T06:34:50;8.45;;;6.50;;
61741;SDS011;47650;49.848;9.620;2023-05-20T06:37:15;8.40;;;6.38;;
61741;SDS011;47650;49.848;9.620;2023-05-20T06:39:41;8.93;;;6.93;;
61741;SDS011;47650;49.848;9.620;2023-05-20T06:42:09;7.25;;;5.85;;
61741;SDS011;47650;49.848;9.620;2023-05-20T06:44:35;7.22;;;6.50;;
61741;SDS011;47650;49.848;9.620;2023-05-20T06:47:03;7.88;;;6.00;;
61741;SDS011;47650;49.848;9.620;2023-05-20T06:49:30;6.88;;;6.15;;
61741;SDS011;47650;49.848;9.620;2023-05-20T06:51:57;10.30;;;5.85;;
61741;SDS011;47650;49.848;9.620;2023-05-20T06:54:23;7.88;;;7.07;;
61741;SDS011;47650;49.848;9.620;2023-05-20T06:56:51;7.85;;;7.05;;
61741;SDS011;47650;49.848;9.620;2023-05-20T06:59:16;8.70;;;5.97;;
61741;SDS011;47650;49.848;9.620;2023-05-20T07:01:43;7.32;;;6.63;;
61741;SDS011;47650;49.848;9.620;2023-05-20T07:04:08;7.63;;;6.25;;
61741;SDS011;47650;49.848;9.620;2023-05-20T07:06:34;8.70;;;6.38;;
61741;SDS011;47650;49.848;9.620;2023-05-20T07:09:00;9.02;;;6.55;;
61741;SDS011;47650;49.848;9.620;2023-05-20T07:11:26;8.68;;;6.53;;
61741;SDS011;47650;49.848;9.620;2023-05-20T07:13:52;7.88;;;7.18;;
61741;SDS011;47650;49.848;9.620;2023-05-20T07:16:19;8.73;;;6.47;;
61741;SDS011;47650;49.848;9.620;2023-05-20T07:18:44;7.25;;;6.57;;
61741;SDS011;47650;49.848;9.620;2023-05-20T07:21:10;8.30;;;7.07;;
61741;SDS011;47650;49.848;9.620;2023-05-20T07:23:35;7.55;;;6.85;;
61741;SDS011;47650;49.848;9.620;2023-05-20T07:26:00;8.95;;;6.40;;
61741;SDS011;47650;49.848;9.620;2023-05-20T07:28:28;7.47;;;6.60;;
61741;SDS011;47650;49.848;9.620;2023-05-20T07:30:53;6.97;;;6.28;;
61741;SDS011;47650;49.848;9.620;2023-05-20T07:33:21;8.35;;;6.28;;
61741;SDS011;47650;49.848;9.620;2023-05-20T07:35:47;7.95;;;6.38;;
61741;SDS011;47650;49.848;9.620;2023-05-20T07:38:18;7.43;;;6.72;;
61741;SDS011;47650;49.848;9.620;2023-05-20T07:40:44;10.25;;;6.50;;
61741;SDS011;47650;49.848;9.620;2023-05-20T07:43:09;11.18;;;7.13;;
61741;SDS011;47650;49.848;9.620;2023-05-20T07:45:35;11.05;;;6.38;;
61741;SDS011;47650;49.848;9.620;2023-05-20T07:48:03;8.90;;;7.50;;
61741;SDS011;47650;49.848;9.620;2023-05-20T07:50:29;7.72;;;6.95;;
61741;SDS011;47650;49.848;9.620;2023-05-20T07:52:55;7.80;;;6.70;;
61741;SDS011;47650;49.848;9.620;2023-05-20T07:55:20;8.05;;;7.28;;
61741;SDS011;47650;49.848;9.620;2023-05-20T07:57:47;8.50;;;6.78;;
61741;SDS011;47650;49.848;9.620;2023-05-20T08:00:12;9.30;;;6.55;;
61741;SDS011;47650;49.848;9.620;2023-05-20T08:02:38;7.32;;;6.55;;
61741;SDS011;47650;49.848;9.620;2023-05-20T08:05:04;8.40;;;6.50;;
61741;SDS011;47650;49.848;9.620;2023-05-20T08:07:31;8.20;;;6.88;;
61741;SDS011;47650;49.848;9.620;2023-05-20T08:09:58;7.60;;;6.78;;
61741;SDS011;47650;49.848;9.620;2023-05-20T08:12:26;6.78;;;6.03;;
61741;SDS011;47650;49.848;9.620;2023-05-20T08:14:52;7.53;;;6.82;;
61741;SDS011;47650;49.848;9.620;2023-05-20T08:17:18;7.68;;;6.97;;
61741;SDS011;47650;49.848;9.620;2023-05-20T08:19:43;8.18;;;6.97;;
61741;SDS011;47650;49.848;9.620;2023-05-20T08:22:08;8.07;;;7.25;;
61741;SDS011;47650;49.848;9.620;2023-05-20T08:24:38;7.25;;;6.60;;
61741;SDS011;47650;49.848;9.620;2023-05-20T08:27:04;7.97;;;7.18;;
61741;SDS011;47650;49.848;9.620;2023-05-20T08:29:30;8.82;;;7.10;;
61741;SDS011;47650;49.848;9.620;2023-05-20T08:31:58;7.70;;;6.90;;
61741;SDS011;47650;49.848;9.620;2023-05-20T08:34:27;7.63;;;6.45;;
61741;SDS011;47650;49.848;9.620;2023-05-20T08:36:53;7.35;;;6.55;;
61741;SDS011;47650;49.848;9.620;2023-05-20T08:39:22;6.35;;;5.78;;
61741;SDS011;47650;49.848;9.620;2023-05-20T08:41:48;7.72;;;7.03;;
61741;SDS011;47650;49.848;9.620;2023-05-20T08:44:15;7.30;;;6.60;;
61741;SDS011;47650;49.848;9.620;2023-05-20T08:46:43;6.75;;;6.15;;
61741;SDS011;47650;49.848;9.620;2023-05-20T08:49:09;8.60;;;7.90;;
61741;SDS011;47650;49.848;9.620;2023-05-20T08:51:35;7.65;;;6.80;;
61741;SDS011;47650;49.848;9.620;2023-05-20T08:54:02;8.98;;;8.27;;
61741;SDS011;47650;49.848;9.620;2023-05-20T08:56:27;8.20;;;7.50;;
61741;SDS011;47650;49.848;9.620;2023-05-20T08:58:55;8.52;;;7.78;;
61741;SDS011;47650;49.848;9.620;2023-05-20T09:01:22;9.30;;;8.50;;
61741;SDS011;47650;49.848;9.620;2023-05-20T09:03:48;8.45;;;7.45;;
61741;SDS011;47650;49.848;9.620;2023-05-20T09:06:19;8.65;;;7.85;;
61741;SDS011;47650;49.848;9.620;2023-05-20T09:08:49;9.57;;;8.77;;
61741;SDS011;47650;49.848;9.620;2023-05-20T09:11:15;9.85;;;8.95;;
61741;SDS011;47650;49.848;9.620;2023-05-20T09:13:42;26.23;;;24.65;;
61741;SDS011;47650;49.848;9.620;2023-05-20T09:16:08;9.38;;;8.68;;
61741;SDS011;47650;49.848;9.620;2023-05-20T09:18:37;11.23;;;10.45;;
61741;SDS011;47650;49.848;9.620;2023-05-20T09:21:04;20.27;;;19.08;;
61741;SDS011;47650;49.848;9.620;2023-05-20T09:23:35;13.23;;;12.43;;
61741;SDS011;47650;49.848;9.620;2023-05-20T09:26:02;24.73;;;23.27;;
61741;SDS011;47650;49.848;9.620;2023-05-20T09:28:28;15.82;;;14.63;;
61741;SDS011;47650;49.848;9.620;2023-05-20T09:30:57;14.18;;;13.20;;
61741;SDS011;47650;49.848;9.620;2023-05-20T09:33:27;9.30;;;8.60;;
61741;SDS011;47650;49.848;9.620;2023-05-20T09:36:02;11.83;;;10.93;;
61741;SDS011;47650;49.848;9.620;2023-05-20T09:38:29;22.55;;;21.23;;
61741;SDS011;47650;49.848;9.620;2023-05-20T09:41:02;12.45;;;10.63;;
61741;SDS011;47650;49.848;9.620;2023-05-20T09:43:32;11.38;;;10.40;;
61741;SDS011;47650;49.848;9.620;2023-05-20T09:45:58;9.63;;;8.90;;
61741;SDS011;47650;49.848;9.620;2023-05-20T09:48:30;15.30;;;14.32;;
61741;SDS011;47650;49.848;9.620;2023-05-20T09:50:58;8.02;;;7.30;;
61741;SDS011;47650;49.848;9.620;2023-05-20T09:53:26;5.55;;;5.07;;
61741;SDS011;47650;49.848;9.620;2023-05-20T09:55:54;8.80;;;7.97;;
61741;SDS011;47650;49.848;9.620;2023-05-20T09:58:21;8.88;;;8.07;;
61741;SDS011;47650;49.848;9.620;2023-05-20T10:00:47;7.50;;;6.90;;
61741;SDS011;47650;49.848;9.620;2023-05-20T10:03:13;8.02;;;7.22;;
61741;SDS011;47650;49.848;9.620;2023-05-20T10:05:47;6.40;;;5.85;;
61741;SDS011;47650;49.848;9.620;2023-05-20T10:11:41;8.35;;;7.75;;
61741;SDS011;47650;49.848;9.620;2023-05-20T10:17:24;7.28;;;6.28;;
61741;SDS011;47650;49.848;9.620;2023-05-20T10:20:05;5.40;;;4.97;;
61741;SDS011;47650;49.848;9.620;2023-05-20T10:22:35;9.80;;;5.35;;
61741;SDS011;47650;49.848;9.620;2023-05-20T10:25:03;6.03;;;5.43;;
61741;SDS011;47650;49.848;9.620;2023-05-20T10:27:43;9.20;;;8.40;;
61741;SDS011;47650;49.848;9.620;2023-05-20T10:30:16;5.93;;;5.50;;
61741;SDS011;47650;49.848;9.620;2023-05-20T10:32:52;7.65;;;6.95;;
61741;SDS011;47650;49.848;9.620;2023-05-20T10:35:23;8.40;;;7.70;;
61741;SDS011;47650;49.848;9.620;2023-05-20T10:37:53;8.38;;;7.50;;
61741;SDS011;47650;49.848;9.620;2023-05-20T10:40:21;7.43;;;6.82;;
61741;SDS011;47650;49.848;9.620;2023-05-20T10:43:16;7.72;;;7.03;;
61741;SDS011;47650;49.848;9.620;2023-05-20T10:45:50;6.88;;;6.30;;
61741;SDS011;47650;49.848;9.620;2023-05-20T10:48:27;8.98;;;7.30;;
61741;SDS011;47650;49.848;9.620;2023-05-20T10:51:03;7.60;;;6.90;;
61741;SDS011;47650;49.848;9.620;2023-05-20T10:53:45;6.63;;;6.13;;
61741;SDS011;47650;49.848;9.620;2023-05-20T10:56:17;5.65;;;5.20;;
61741;SDS011;47650;49.848;9.620;2023-05-20T10:58:47;7.13;;;6.63;;
61741;SDS011;47650;49.848;9.620;2023-05-20T11:01:13;7.07;;;6.30;;
61741;SDS011;47650;49.848;9.620;2023-05-20T11:03:40;7.30;;;6.50;;
61741;SDS011;47650;49.848;9.620;2023-05-20T11:06:16;7.55;;;6.95;;
61741;SDS011;47650;49.848;9.620;2023-05-20T11:08:44;6.20;;;5.70;;
61741;SDS011;47650;49.848;9.620;2023-05-20T11:11:10;7.35;;;6.75;;
61741;SDS011;47650;49.848;9.620;2023-05-20T11:13:37;7.60;;;6.97;;
61741;SDS011;47650;49.848;9.620;2023-05-20T11:16:03;7.38;;;6.68;;
61741;SDS011;47650;49.848;9.620;2023-05-20T11:18:29;6.45;;;5.95;;
61741;SDS011;47650;49.848;9.620;2023-05-20T11:20:55;6.85;;;6.20;;
61741;SDS011;47650;49.848;9.620;2023-05-20T11:23:21;5.50;;;5.07;;
61741;SDS011;47650;49.848;9.620;2023-05-20T11:25:48;6.70;;;6.22;;
61741;SDS011;47650;49.848;9.620;2023-05-20T11:28:14;6.88;;;6.25;;
61741;SDS011;47650;49.848;9.620;2023-05-20T11:30:43;6.70;;;6.20;;
61741;SDS011;47650;49.848;9.620;2023-05-20T11:33:10;5.40;;;5.00;;
61741;SDS011;47650;49.848;9.620;2023-05-20T11:35:43;5.88;;;5.45;;
61741;SDS011;47650;49.848;9.620;2023-05-20T11:38:13;5.97;;;5.47;;
61741;SDS011;47650;49.848;9.620;2023-05-20T11:40:45;5.95;;;5.45;;
61741;SDS011;47650;49.848;9.620;2023-05-20T11:43:12;6.32;;;5.80;;
61741;SDS011;47650;49.848;9.620;2023-05-20T11:45:40;6.03;;;5.43;;
61741;SDS011;47650;49.848;9.620;2023-05-20T11:48:07;6.85;;;6.25;;
61741;SDS011;47650;49.848;9.620;2023-05-20T11:50:37;6.80;;;6.30;;
61741;SDS011;47650;49.848;9.620;2023-05-20T11:53:05;6.03;;;5.57;;
61741;SDS011;47650;49.848;9.620;2023-05-20T11:55:32;6.20;;;5.70;;
61741;SDS011;47650;49.848;9.620;2023-05-20T11:57:59;5.95;;;5.55;;
61741;SDS011;47650;49.848;9.620;2023-05-20T12:00:27;5.60;;;5.00;;
61741;SDS011;47650;49.848;9.620;2023-05-20T12:02:52;7.15;;;6.55;;
61741;SDS011;47650;49.848;9.620;2023-05-20T12:05:19;7.03;;;6.30;;
61741;SDS011;47650;49.848;9.620;2023-05-20T12:07:46;6.43;;;5.93;;
61741;SDS011;47650;49.848;9.620;2023-05-20T12:10:12;6.63;;;6.03;;
61741;SDS011;47650;49.848;9.620;2023-05-20T12:12:38;6.32;;;5.88;;
61741;SDS011;47650;49.848;9.620;2023-05-20T12:15:03;6.68;;;6.10;;
61741;SDS011;47650;49.848;9.620;2023-05-20T12:17:30;6.65;;;6.05;;
61741;SDS011;47650;49.848;9.620;2023-05-20T12:20:02;7.50;;;6.88;;
61741;SDS011;47650;49.848;9.620;2023-05-20T12:22:30;6.35;;;5.88;;
61741;SDS011;47650;49.848;9.620;2023-05-20T12:24:57;6.30;;;5.85;;
61741;SDS011;47650;49.848;9.620;2023-05-20T12:27:23;8.32;;;6.97;;
61741;SDS011;47650;49.848;9.620;2023-05-20T12:29:48;8.70;;;5.77;;
61741;SDS011;47650;49.848;9.620;2023-05-20T12:32:14;6.60;;;6.07;;
61741;SDS011;47650;49.848;9.620;2023-05-20T12:34:39;6.85;;;5.90;;
61741;SDS011;47650;49.848;9.620;2023-05-20T12:37:05;7.50;;;5.83;;
61741;SDS011;47650;49.848;9.620;2023-05-20T12:39:31;6.63;;;6.13;;
61741;SDS011;47650;49.848;9.620;2023-05-20T12:42:00;8.10;;;5.97;;
61741;SDS011;47650;49.848;9.620;2023-05-20T12:44:27;6.88;;;6.28;;
61741;SDS011;47650;49.848;9.620;2023-05-20T12:46:55;6.20;;;5.65;;
61741;SDS011;47650;49.848;9.620;2023-05-20T12:49:26;7.55;;;5.78;;
61741;SDS011;47650;49.848;9.620;2023-05-20T12:51:52;9.43;;;6.70;;
61741;SDS011;47650;49.848;9.620;2023-05-20T12:54:18;6.33;;;5.83;;
61741;SDS011;47650;49.848;9.620;2023-05-20T12:56:44;6.82;;;5.80;;
61741;SDS011;47650;49.848;9.620;2023-05-20T12:59:12;7.63;;;6.10;;
61741;SDS011;47650;49.848;9.620;2023-05-20T13:01:39;6.85;;;6.22;;
61741;SDS011;47650;49.848;9.620;2023-05-20T13:04:05;5.80;;;5.40;;
61741;SDS011;47650;49.848;9.620;2023-05-20T13:06:30;7.00;;;6.13;;
61741;SDS011;47650;49.848;9.620;2023-05-20T13:09:00;6.88;;;5.68;;
61741;SDS011;47650;49.848;9.620;2023-05-20T13:11:25;8.38;;;5.78;;
61741;SDS011;47650;49.848;9.620;2023-05-20T13:13:50;6.33;;;5.83;;
61741;SDS011;47650;49.848;9.620;2023-05-20T13:16:17;6.43;;;5.82;;
61741;SDS011;47650;49.848;9.620;2023-05-20T13:18:43;6.25;;;5.65;;
61741;SDS011;47650;49.848;9.620;2023-05-20T13:21:08;6.20;;;5.70;;
61741;SDS011;47650;49.848;9.620;2023-05-20T13:23:34;6.40;;;5.90;;
61741;SDS011;47650;49.848;9.620;2023-05-20T13:26:01;6.28;;;5.65;;
61741;SDS011;47650;49.848;9.620;2023-05-20T13:28:26;6.43;;;5.95;;
61741;SDS011;47650;49.848;9.620;2023-05-20T13:30:52;6.15;;;5.72;;
61741;SDS011;47650;49.848;9.620;2023-05-20T13:33:17;6.68;;;6.18;;
61741;SDS011;47650;49.848;9.620;2023-05-20T13:35:42;6.53;;;5.90;;
61741;SDS011;47650;49.848;9.620;2023-05-20T13:38:08;6.55;;;6.00;;
61741;SDS011;47650;49.848;9.620;2023-05-20T13:40:34;6.38;;;5.70;;
61741;SDS011;47650;49.848;9.620;2023-05-20T13:42:59;6.15;;;5.63;;
61741;SDS011;47650;49.848;9.620;2023-05-20T13:45:27;6.28;;;5.78;;
61741;SDS011;47650;49.848;9.620;2023-05-20T13:47:54;6.20;;;5.70;;
61741;SDS011;47650;49.848;9.620;2023-05-20T13:50:20;6.22;;;5.72;;
61741;SDS011;47650;49.848;9.620;2023-05-20T13:52:46;7.60;;;5.22;;
61741;SDS011;47650;49.848;9.620;2023-05-20T13:55:12;6.23;;;5.67;;
61741;SDS011;47650;49.848;9.620;2023-05-20T13:57:37;6.40;;;5.80;;
61741;SDS011;47650;49.848;9.620;2023-05-20T14:00:04;6.03;;;5.53;;
61741;SDS011;47650;49.848;9.620;2023-05-20T14:02:33;11.43;;;5.72;;
61741;SDS011;47650;49.848;9.620;2023-05-20T14:04:58;6.45;;;5.85;;
61741;SDS011;47650;49.848;9.620;2023-05-20T14:07:23;6.13;;;5.60;;
61741;SDS011;47650;49.848;9.620;2023-05-20T14:09:49;6.67;;;6.13;;
61741;SDS011;47650;49.848;9.620;2023-05-20T14:12:16;6.35;;;5.85;;
61741;SDS011;47650;49.848;9.620;2023-05-20T14:14:42;6.35;;;5.72;;
61741;SDS011;47650;49.848;9.620;2023-05-20T14:17:08;6.50;;;5.63;;
61741;SDS011;47650;49.848;9.620;2023-05-20T14:19:33;6.05;;;5.55;;
61741;SDS011;47650;49.848;9.620;2023-05-20T14:21:58;7.97;;;5.53;;
61741;SDS011;47650;49.848;9.620;2023-05-20T14:24:25;6.93;;;5.25;;
61741;SDS011;47650;49.848;9.620;2023-05-20T14:26:51;5.30;;;4.90;;
61741;SDS011;47650;49.848;9.620;2023-05-20T14:29:16;6.25;;;5.72;;
61741;SDS011;47650;49.848;9.620;2023-05-20T14:31:41;6.70;;;6.10;;
61741;SDS011;47650;49.848;9.620;2023-05-20T14:34:07;8.82;;;6.30;;
61741;SDS011;47650;49.848;9.620;2023-05-20T14:36:32;6.93;;;6.27;;
61741;SDS011;47650;49.848;9.620;2023-05-20T14:38:57;6.70;;;6.20;;
61741;SDS011;47650;49.848;9.620;2023-05-20T14:41:22;6.40;;;5.80;;
61741;SDS011;47650;49.848;9.620;2023-05-20T14:43:48;10.85;;;6.13;;
61741;SDS011;47650;49.848;9.620;2023-05-20T14:46:13;6.30;;;5.80;;
61741;SDS011;47650;49.848;9.620;2023-05-20T14:48:38;8.13;;;6.20;;
61741;SDS011;47650;49.848;9.620;2023-05-20T14:51:04;6.90;;;6.30;;
61741;SDS011;47650;49.848;9.620;2023-05-20T14:53:29;6.63;;;6.13;;
61741;SDS011;47650;49.848;9.620;2023-05-20T14:55:54;6.55;;;6.05;;
61741;SDS011;47650;49.848;9.620;2023-05-20T14:58:21;6.90;;;6.30;;
61741;SDS011;47650;49.848;9.620;2023-05-20T15:00:46;6.80;;;6.20;;